Time;durP1;ratioP1;P1;durP2;ratioP2;P2;SDS_P1;SDS_P2;PMS_P1;PMS_P2;Temp;Humidity;BMP_temperature;BMP_pressure;BME280_temperature;BME280_humidity;BME280_pressure;Samples;Min_cycle;Max_cycle;Signal;HPM_P1;HPM_P2
2022/07/23 00:00:40;;;;;;;1.63;1.52;;;21.70;94.80;;;;;;4125383;28;20523;-56
2022/07/23 00:02:42;;;;;;;;;;;21.90;94.50;;;;;;4131140;28;20458;-56
2022/07/23 00:04:44;;;;;;;4.10;1.50;;;21.90;93.90;;;;;;4130315;28;20714;-56
2022/07/23 00:06:46;;;;;;;1.40;1.23;;;21.70;93.80;;;;;;4126121;28;20078;-56
2022/07/23 00:08:48;;;;;;;;;;;21.70;94.30;;;;;;4130150;28;20525;-55
2022/07/23 00:10:50;;;;;;;1.73;1.25;;;21.80;94.10;;;;;;4130757;28;19961;-57
2022/07/23 00:12:52;;;;;;;1.30;1.10;;;21.90;93.90;;;;;;4130358;28;20038;-56
2022/07/23 00:14:54;;;;;;;1.55;1.45;;;21.90;94.40;;;;;;4130695;28;20402;-57
2022/07/23 00:16:56;;;;;;;2.25;2.10;;;21.90;94.70;;;;;;4120963;28;20089;-56
2022/07/23 00:19:01;;;;;;;2.03;1.63;;;21.80;95.40;;;;;;4130391;28;20616;-57
2022/07/23 00:21:04;;;;;;;2.95;1.63;;;21.70;95.80;;;;;;4130453;28;20493;-55
2022/07/23 00:23:06;;;;;;;1.52;1.35;;;21.80;96.10;;;;;;4121356;28;20046;-55
2022/07/23 00:25:09;;;;;;;4.85;2.22;;;21.70;96.00;;;;;;4114162;28;20055;-56
2022/07/23 00:27:29;;;;;;;4.50;1.30;;;21.70;96.40;;;;;;4114358;28;20454;-56
2022/07/23 00:29:31;;;;;;;5.55;1.80;;;21.80;96.50;;;;;;4122492;28;20046;-57
2022/07/23 00:31:34;;;;;;;1.50;1.40;;;21.60;96.70;;;;;;4129785;28;20449;-56
2022/07/23 00:33:36;;;;;;;1.80;1.70;;;21.50;96.80;;;;;;4114899;28;20049;-56
2022/07/23 00:35:40;;;;;;;4.63;1.77;;;21.50;96.90;;;;;;4119749;28;20442;-56
2022/07/23 00:37:42;;;;;;;1.63;1.23;;;21.20;97.20;;;;;;4130423;28;20128;-56
2022/07/23 00:39:45;;;;;;;1.48;1.40;;;21.20;98.10;;;;;;4116306;28;20430;-56
2022/07/23 00:41:47;;;;;;;2.45;1.40;;;21.30;98.00;;;;;;4117823;28;20104;-57
2022/07/23 00:43:49;;;;;;;2.22;2.13;;;21.30;98.50;;;;;;4130118;28;20109;-56
2022/07/23 00:45:52;;;;;;;3.33;1.58;;;21.20;98.80;;;;;;4129866;28;20038;-55
2022/07/23 00:47:54;;;;;;;1.80;1.63;;;21.10;99.10;;;;;;4128003;28;20158;-56
2022/07/23 00:49:56;;;;;;;;;;;21.10;99.00;;;;;;4120658;28;20081;-56
2022/07/23 00:52:01;;;;;;;4.20;2.20;;;20.90;99.60;;;;;;4129118;28;20402;-56
2022/07/23 00:54:04;;;;;;;4.63;2.10;;;20.90;99.90;;;;;;4129595;28;20093;-56
2022/07/23 00:56:06;;;;;;;1.70;1.60;;;20.90;99.90;;;;;;4118387;28;20525;-57
2022/07/23 00:58:09;;;;;;;2.63;2.38;;;20.80;99.90;;;;;;4128492;28;20414;-56
2022/07/23 01:00:14;;;;;;;8.23;1.73;;;20.80;99.90;;;;;;4129775;28;20109;-55
2022/07/23 01:02:16;;;;;;;1.98;1.83;;;20.70;99.90;;;;;;4114402;28;20042;-56
2022/07/23 01:04:18;;;;;;;2.05;1.95;;;20.60;99.90;;;;;;4119133;28;20057;-56
2022/07/23 01:06:21;;;;;;;2.38;2.28;;;20.30;99.90;;;;;;4129288;28;20053;-56
2022/07/23 01:08:23;;;;;;;1.85;1.75;;;20.10;99.90;;;;;;4128666;28;20063;-55
2022/07/23 01:10:32;;;;;;;2.65;2.10;;;19.90;99.90;;;;;;4129265;28;20042;-55
2022/07/23 01:12:34;;;;;;;2.58;2.47;;;19.80;99.90;;;;;;4129625;28;20034;-56
2022/07/23 01:14:36;;;;;;;2.72;1.80;;;19.50;99.90;;;;;;4128119;28;20467;-56
2022/07/23 01:16:38;;;;;;;1.83;1.20;;;19.30;99.90;;;;;;4129493;28;20050;-56
2022/07/23 01:18:40;;;;;;;1.75;1.65;;;19.20;99.90;;;;;;4129407;28;20224;-57
2022/07/23 01:20:42;;;;;;;2.67;1.63;;;19.20;99.90;;;;;;4128985;28;20113;-56
2022/07/23 01:22:45;;;;;;;1.40;1.30;;;19.40;99.90;;;;;;4129636;28;20046;-56
2022/07/23 01:24:47;;;;;;;1.23;1.15;;;19.70;99.90;;;;;;4129366;28;20046;-56
2022/07/23 01:26:50;;;;;;;2.60;1.60;;;19.90;99.90;;;;;;4129165;28;20058;-57
2022/07/23 01:28:52;;;;;;;1.33;1.25;;;20.10;99.90;;;;;;4129189;28;20046;-57
2022/07/23 01:30:54;;;;;;;2.45;1.45;;;20.00;99.90;;;;;;4114747;28;20430;-56
2022/07/23 01:32:56;;;;;;;1.70;1.15;;;19.90;99.90;;;;;;4117895;28;20030;-56
2022/07/23 01:34:58;;;;;;;1.95;1.83;;;19.80;99.90;;;;;;4129260;28;20482;-56
2022/07/23 01:37:00;;;;;;;1.98;1.80;;;19.80;99.90;;;;;;4117129;28;20216;-55
2022/07/23 01:39:03;;;;;;;;;;;19.70;99.90;;;;;;4116568;28;20053;-56
2022/07/23 01:41:05;;;;;;;2.53;2.35;;;19.60;99.90;;;;;;4128557;28;19961;-56
2022/07/23 01:43:08;;;;;;;3.83;2.33;;;19.50;99.90;;;;;;4121679;28;20056;-56
2022/07/23 01:45:12;;;;;;;2.75;2.35;;;19.40;99.90;;;;;;4128676;28;20494;-56
2022/07/23 01:47:14;;;;;;;3.72;3.10;;;19.20;99.90;;;;;;4129469;28;20487;-56
2022/07/23 01:49:16;;;;;;;2.92;2.72;;;19.10;99.90;;;;;;4121437;28;20047;-56
2022/07/23 01:51:18;;;;;;;2.40;2.20;;;19.10;99.90;;;;;;4128776;28;20463;-55
2022/07/23 01:53:20;;;;;;;5.63;3.00;;;19.10;99.90;;;;;;4128326;28;20413;-57
2022/07/23 01:55:23;;;;;;;5.38;2.67;;;19.00;99.90;;;;;;4127510;28;20054;-55
2022/07/23 01:57:25;;;;;;;3.58;3.17;;;18.90;99.90;;;;;;4128407;28;20447;-57
2022/07/23 01:59:28;;;;;;;4.00;3.10;;;18.90;99.90;;;;;;4115630;28;20546;-55
2022/07/23 02:01:32;;;;;;;3.45;2.40;;;19.10;99.90;;;;;;4116144;28;20101;-56
2022/07/23 02:03:36;;;;;;;2.88;2.78;;;19.10;99.90;;;;;;4128533;28;20382;-56
2022/07/23 02:05:38;;;;;;;3.17;2.25;;;19.30;99.90;;;;;;4116455;28;20043;-56
2022/07/23 02:07:40;;;;;;;3.55;2.63;;;19.30;99.90;;;;;;4118239;28;20081;-57
2022/07/23 02:09:42;;;;;;;2.95;2.63;;;19.20;99.90;;;;;;4128496;28;20406;-56
2022/07/23 02:11:44;;;;;;;3.53;3.22;;;19.30;99.90;;;;;;4126855;28;20055;-55
2022/07/23 02:13:46;;;;;;;2.33;2.22;;;19.30;99.90;;;;;;4128459;28;20050;-57
2022/07/23 02:15:48;;;;;;;2.95;2.70;;;19.20;99.90;;;;;;4112778;28;20046;-56
2022/07/23 02:17:50;;;;;;;2.70;2.60;;;19.10;99.90;;;;;;4120149;28;20042;-57
2022/07/23 02:19:52;;;;;;;2.90;2.80;;;19.20;99.90;;;;;;4127531;28;20081;-56
2022/07/23 02:21:54;;;;;;;2.67;2.47;;;19.10;99.90;;;;;;4114381;28;20081;-56
2022/07/23 02:23:57;;;;;;;3.33;3.13;;;19.10;99.90;;;;;;4117153;28;20085;-56
2022/07/23 02:25:59;;;;;;;;;;;19.20;99.90;;;;;;4128715;28;20399;-56
2022/07/23 02:28:01;;;;;;;2.80;2.70;;;19.20;99.90;;;;;;4116334;28;19961;-57
2022/07/23 02:30:04;;;;;;;3.00;2.80;;;19.20;99.90;;;;;;4112468;28;20047;-55
2022/07/23 02:32:06;;;;;;;3.58;2.80;;;18.90;99.90;;;;;;4112007;28;20105;-56
2022/07/23 02:34:11;;;;;;;3.05;2.40;;;18.80;99.90;;;;;;4112498;28;20085;-57
2022/07/23 02:36:13;;;;;;;2.17;2.05;;;18.70;99.90;;;;;;4112509;28;20549;-56
2022/07/23 02:38:15;;;;;;;3.08;2.88;;;18.70;99.90;;;;;;4112194;28;20043;-57
2022/07/23 02:40:18;;;;;;;4.18;2.85;;;18.50;99.90;;;;;;4111860;28;20055;-56
2022/07/23 02:42:20;;;;;;;3.00;2.80;;;18.50;99.90;;;;;;4112258;28;20568;-56
2022/07/23 02:44:23;;;;;;;;;;;18.60;99.90;;;;;;4125154;28;20073;-56
2022/07/23 02:46:25;;;;;;;2.80;2.70;;;18.50;99.90;;;;;;4127002;28;19921;-56
2022/07/23 02:48:27;;;;;;;4.43;2.83;;;18.50;99.90;;;;;;4127932;28;20064;-56
2022/07/23 02:50:29;;;;;;;4.43;2.50;;;18.70;99.90;;;;;;4127972;28;20045;-56
2022/07/23 02:52:31;;;;;;;2.90;2.80;;;18.80;99.90;;;;;;4128387;28;20142;-55
2022/07/23 02:54:33;;;;;;;3.03;2.72;;;18.80;99.90;;;;;;4128305;28;20042;-56
2022/07/23 02:56:37;;;;;;;9.98;2.03;;;18.80;99.90;;;;;;4126765;28;20340;-56
2022/07/23 02:58:39;;;;;;;;;;;18.80;99.90;;;;;;4128521;28;20400;-55
2022/07/23 03:00:41;;;;;;;3.33;2.40;;;18.80;99.90;;;;;;4128367;28;19961;-56
2022/07/23 03:02:43;;;;;;;2.45;2.00;;;18.70;99.90;;;;;;4128061;28;20058;-56
2022/07/23 03:04:45;;;;;;;5.45;2.30;;;18.50;99.90;;;;;;4128250;28;20054;-55
2022/07/23 03:06:48;;;;;;;2.40;2.28;;;18.60;99.90;;;;;;4128023;28;20053;-56
2022/07/23 03:08:50;;;;;;;2.63;2.47;;;18.50;99.90;;;;;;4128112;28;20046;-57
2022/07/23 03:10:52;;;;;;;;;;;18.60;99.90;;;;;;4128528;28;20050;-56
2022/07/23 03:12:54;;;;;;;2.88;2.22;;;18.70;99.90;;;;;;4127811;28;20297;-56
2022/07/23 03:14:56;;;;;;;2.55;2.35;;;18.70;99.90;;;;;;4130630;28;20039;-56
2022/07/23 03:16:59;;;;;;;2.50;2.25;;;18.60;99.90;;;;;;4131105;28;20042;-56
2022/07/23 03:19:01;;;;;;;2.83;2.60;;;18.50;99.90;;;;;;4131088;28;20081;-56
2022/07/23 03:21:08;;;;;;;4.47;2.50;;;18.30;99.90;;;;;;4130894;28;20584;-56
2022/07/23 03:23:10;;;;;;;3.17;2.78;;;18.30;99.90;;;;;;4131089;28;20517;-56
2022/07/23 03:25:12;;;;;;;6.10;2.30;;;18.20;99.90;;;;;;4131277;28;20410;-57
2022/07/23 03:27:14;;;;;;;2.63;2.38;;;18.30;99.90;;;;;;4120990;28;20054;-57
2022/07/23 03:29:17;;;;;;;2.40;2.30;;;18.30;99.90;;;;;;4115633;28;20474;-56
2022/07/23 03:31:19;;;;;;;2.17;2.08;;;18.40;99.90;;;;;;4131394;28;20049;-55
2022/07/23 03:33:22;;;;;;;3.53;3.33;;;18.30;99.90;;;;;;4122365;28;20066;-57
2022/07/23 03:35:24;;;;;;;2.70;2.45;;;18.10;99.90;;;;;;4115264;28;20431;-56
2022/07/23 03:37:26;;;;;;;2.72;2.63;;;18.00;99.90;;;;;;4127330;28;20093;-56
2022/07/23 03:39:30;;;;;;;2.70;2.60;;;18.00;99.90;;;;;;4119199;28;20042;-56
2022/07/23 03:41:32;;;;;;;2.70;2.58;;;18.00;99.90;;;;;;4130510;28;20058;-56
2022/07/23 03:43:34;;;;;;;3.97;2.58;;;18.00;99.90;;;;;;4130726;28;20046;-56
2022/07/23 03:45:36;;;;;;;3.90;3.53;;;17.90;99.90;;;;;;4129165;28;20404;-57
2022/07/23 03:47:38;;;;;;;3.80;3.55;;;17.80;99.90;;;;;;4130730;28;20460;-56
2022/07/23 03:49:41;;;;;;;2.97;2.78;;;17.90;99.90;;;;;;4123694;28;20514;-57
2022/07/23 03:51:43;;;;;;;3.15;2.95;;;17.80;99.90;;;;;;4128992;28;20109;-56
2022/07/23 03:53:45;;;;;;;3.42;3.15;;;17.70;99.90;;;;;;4114612;28;20050;-56
2022/07/23 03:55:47;;;;;;;3.78;2.38;;;17.50;99.90;;;;;;4123155;28;20150;-56
2022/07/23 03:57:49;;;;;;;3.45;3.33;;;17.50;99.90;;;;;;4131050;28;20398;-55
2022/07/23 03:59:51;;;;;;;2.35;2.22;;;17.40;99.90;;;;;;4114682;28;20494;-57
2022/07/23 04:01:53;;;;;;;3.30;3.10;;;17.40;99.90;;;;;;4121035;28;20042;-56
2022/07/23 04:03:55;;;;;;;2.90;2.80;;;17.50;99.90;;;;;;4130167;28;20387;-56
2022/07/23 04:05:57;;;;;;;3.33;3.03;;;17.40;99.90;;;;;;4117222;28;20051;-56
2022/07/23 04:08:00;;;;;;;3.25;3.08;;;17.30;99.90;;;;;;4123084;28;20041;-57
2022/07/23 04:10:02;;;;;;;3.15;2.22;;;17.30;99.90;;;;;;4130283;28;20125;-56
2022/07/23 04:12:04;;;;;;;;;;;17.30;99.90;;;;;;4119915;28;20124;-57
2022/07/23 04:14:07;;;;;;;3.03;2.83;;;17.20;99.90;;;;;;4129388;28;20393;-58
2022/07/23 04:16:08;;;;;;;;;;;17.00;99.90;;;;;;4115151;28;20353;-56
2022/07/23 04:18:11;;;;;;;3.77;2.33;;;16.90;99.90;;;;;;4124802;28;20285;-57
2022/07/23 04:20:13;;;;;;;;;;;17.10;99.90;;;;;;4130672;28;20098;-57
2022/07/23 04:22:15;;;;;;;2.85;2.33;;;17.20;99.90;;;;;;4114237;28;20076;-56
2022/07/23 04:24:17;;;;;;;2.63;2.40;;;17.20;99.90;;;;;;4113946;28;20154;-56
2022/07/23 04:26:19;;;;;;;;;;;17.40;99.90;;;;;;4113941;28;20105;-55
2022/07/23 04:28:21;;;;;;;2.27;2.17;;;17.40;99.90;;;;;;4128270;28;19922;-57
2022/07/23 04:30:23;;;;;;;2.85;2.17;;;17.40;99.90;;;;;;4125430;28;20117;-57
2022/07/23 04:32:25;;;;;;;2.75;2.58;;;17.60;99.90;;;;;;4128952;28;20050;-56
2022/07/23 04:34:28;;;;;;;2.33;2.22;;;17.70;99.90;;;;;;4125517;28;20255;-56
2022/07/23 04:36:30;;;;;;;4.65;2.60;;;17.80;99.90;;;;;;4130333;28;20126;-56
2022/07/23 04:38:32;;;;;;;;;;;17.70;99.90;;;;;;4126728;28;20030;-56
2022/07/23 04:40:34;;;;;;;3.88;3.60;;;17.60;99.90;;;;;;4113604;28;19956;-56
2022/07/23 04:42:36;;;;;;;10.02;3.38;;;17.50;99.90;;;;;;4129878;28;20085;-56
2022/07/23 04:44:38;;;;;;;3.65;2.60;;;17.40;99.90;;;;;;4129780;28;20069;-56
2022/07/23 04:46:40;;;;;;;2.97;2.80;;;17.30;99.90;;;;;;4130192;28;20329;-56
2022/07/23 04:48:42;;;;;;;3.75;3.22;;;17.30;99.90;;;;;;4129873;28;20498;-56
2022/07/23 04:50:45;;;;;;;2.70;2.60;;;17.20;99.90;;;;;;4129654;28;20046;-56
2022/07/23 04:52:48;;;;;;;4.78;2.85;;;17.20;99.90;;;;;;4129661;28;20054;-56
2022/07/23 04:54:50;;;;;;;3.20;2.53;;;17.10;99.90;;;;;;4129555;28;20042;-56
2022/07/23 04:56:52;;;;;;;4.13;3.00;;;17.10;99.90;;;;;;4144456;28;20042;-56
2022/07/23 04:58:55;;;;;;;3.35;3.03;;;17.00;99.90;;;;;;4129952;28;20449;-56
2022/07/23 05:00:57;;;;;;;2.50;2.40;;;17.10;99.90;;;;;;4129470;28;20380;-57
2022/07/23 05:02:59;;;;;;;4.43;4.07;;;17.10;99.90;;;;;;4129706;28;20043;-56
2022/07/23 05:05:02;;;;;;;3.03;2.83;;;17.20;99.90;;;;;;4129465;28;20442;-56
2022/07/23 05:07:04;;;;;;;3.08;2.88;;;17.30;99.90;;;;;;4129894;28;20038;-56
2022/07/23 05:09:06;;;;;;;6.22;3.67;;;17.40;99.90;;;;;;4128181;28;20049;-56
2022/07/23 05:11:08;;;;;;;3.30;3.05;;;17.50;99.90;;;;;;4128980;28;20042;-55
2022/07/23 05:13:10;;;;;;;3.05;2.80;;;17.50;99.90;;;;;;4129246;28;20042;-56
2022/07/23 05:15:12;;;;;;;3.92;3.63;;;17.40;99.90;;;;;;4129518;28;20502;-57
2022/07/23 05:17:14;;;;;;;2.33;2.22;;;17.50;99.90;;;;;;4128859;28;20094;-56
2022/07/23 05:19:16;;;;;;;5.68;2.80;;;17.60;99.90;;;;;;4129613;28;20734;-57
2022/07/23 05:21:18;;;;;;;3.50;3.40;;;17.60;99.90;;;;;;4129543;28;20039;-56
2022/07/23 05:23:20;;;;;;;3.55;2.78;;;17.50;99.90;;;;;;4114099;28;20474;-57
2022/07/23 05:25:22;;;;;;;3.50;3.33;;;17.50;99.90;;;;;;4118686;28;20457;-57
2022/07/23 05:27:24;;;;;;;2.83;2.72;;;17.50;99.90;;;;;;4129308;28;20073;-56
2022/07/23 05:29:27;;;;;;;2.47;2.38;;;17.50;99.90;;;;;;4129333;28;20069;-56
2022/07/23 05:31:29;;;;;;;2.92;2.83;;;17.60;99.90;;;;;;4129181;28;20116;-56
2022/07/23 05:33:31;;;;;;;3.83;1.92;;;17.60;99.90;;;;;;4120405;28;20057;-58
2022/07/23 05:35:33;;;;;;;3.30;2.20;;;17.70;99.90;;;;;;4113465;28;20101;-57
2022/07/23 05:37:35;;;;;;;2.92;2.17;;;17.70;99.90;;;;;;4128138;28;20498;-55
2022/07/23 05:39:37;;;;;;;5.53;2.90;;;17.80;99.90;;;;;;4129307;28;20084;-57
2022/07/23 05:41:39;;;;;;;2.47;2.25;;;17.80;99.90;;;;;;4128697;28;20038;-57
2022/07/23 05:43:44;;;;;;;2.95;2.85;;;17.80;99.90;;;;;;4122519;28;20054;-56
2022/07/23 05:45:47;;;;;;;3.83;2.85;;;17.80;99.90;;;;;;4143688;28;20065;-57
2022/07/23 05:47:49;;;;;;;8.70;2.90;;;17.90;99.90;;;;;;4128762;28;20046;-56
2022/07/23 05:49:51;;;;;;;;;;;17.90;99.90;;;;;;4123232;28;20053;-57
2022/07/23 05:51:53;;;;;;;2.40;2.28;;;18.10;99.90;;;;;;4128930;28;19925;-56
2022/07/23 05:53:55;;;;;;;2.63;2.28;;;18.10;99.90;;;;;;4128467;28;20042;-56
2022/07/23 05:55:57;;;;;;;2.88;2.67;;;18.20;99.90;;;;;;4123007;28;20057;-56
2022/07/23 05:58:00;;;;;;;2.53;2.33;;;18.30;99.90;;;;;;4121961;28;20494;-57
2022/07/23 06:00:04;;;;;;;4.70;2.58;;;18.40;99.90;;;;;;4128812;28;20042;-56
2022/07/23 06:02:06;;;;;;;3.47;2.83;;;18.50;99.90;;;;;;4120764;28;20074;-57
2022/07/23 06:04:09;;;;;;;3.63;3.03;;;18.60;99.90;;;;;;4112537;28;20047;-56
2022/07/23 06:06:11;;;;;;;3.95;2.75;;;18.70;99.90;;;;;;4127402;28;20084;-57
2022/07/23 06:08:13;;;;;;;3.25;2.95;;;18.80;99.90;;;;;;4128542;28;20034;-56
2022/07/23 06:10:16;;;;;;;2.80;2.65;;;19.20;99.90;;;;;;4128738;28;20081;-57
2022/07/23 06:12:18;;;;;;;3.95;2.05;;;19.40;99.90;;;;;;4128241;28;20050;-56
2022/07/23 06:14:20;;;;;;;2.55;2.45;;;19.40;99.90;;;;;;4125175;28;20395;-58
2022/07/23 06:16:22;;;;;;;2.78;2.50;;;19.50;99.90;;;;;;4112484;28;20047;-56
2022/07/23 06:18:24;;;;;;;6.07;2.08;;;19.50;99.90;;;;;;4124147;28;20387;-56
2022/07/23 06:20:27;;;;;;;2.72;2.63;;;19.60;99.90;;;;;;4127081;28;20050;-57
2022/07/23 06:22:29;;;;;;;12.10;3.92;;;20.00;99.90;;;;;;4112335;28;20050;-58
2022/07/23 06:24:31;;;;;;;2.85;1.83;;;20.50;99.90;;;;;;4120392;28;20050;-56
2022/07/23 06:26:33;;;;;;;3.50;1.65;;;21.00;99.90;;;;;;4128623;28;20077;-57
2022/07/23 06:28:35;;;;;;;;;;;21.50;99.90;;;;;;4113594;28;20057;-56
2022/07/23 06:30:37;;;;;;;3.35;2.40;;;21.90;99.90;;;;;;4118224;28;19965;-56
2022/07/23 06:32:39;;;;;;;2.53;1.77;;;22.30;99.90;;;;;;4128417;28;20073;-56
2022/07/23 06:34:41;;;;;;;3.90;1.40;;;22.70;99.90;;;;;;4128110;28;20034;-57
2022/07/23 06:36:49;;;;;;;7.03;2.35;;;22.90;99.90;;;;;;4123348;28;20060;-57
2022/07/23 06:38:51;;;;;;;1.73;1.63;;;23.30;99.90;;;;;;4112357;28;20042;-57
2022/07/23 06:40:53;;;;;;;1.73;1.27;;;23.60;99.90;;;;;;4123441;28;20043;-56
2022/07/23 06:42:55;;;;;;;1.65;1.25;;;23.90;99.40;;;;;;4127040;28;20046;-56
2022/07/23 06:44:58;;;;;;;1.27;1.20;;;24.00;98.80;;;;;;4128274;28;20502;-56
2022/07/23 06:47:01;;;;;;;1.40;1.30;;;24.20;98.70;;;;;;4127966;28;20057;-56
2022/07/23 06:49:04;;;;;;;4.03;2.17;;;24.50;98.70;;;;;;4127260;28;20406;-56
2022/07/23 06:51:07;;;;;;;4.45;1.27;;;24.70;97.60;;;;;;4127497;28;20046;-56
2022/07/23 06:53:09;;;;;;;1.42;1.33;;;24.80;97.00;;;;;;4128260;28;20050;-57
2022/07/23 06:55:11;;;;;;;3.70;1.25;;;25.10;97.10;;;;;;4128681;28;20494;-56
2022/07/23 06:57:14;;;;;;;1.63;1.52;;;25.30;96.80;;;;;;4113064;28;20047;-56
2022/07/23 06:59:16;;;;;;;3.78;1.63;;;25.50;96.60;;;;;;4117687;28;20039;-57
2022/07/23 07:01:18;;;;;;;;;;;25.80;96.60;;;;;;4128473;28;20042;-59
2022/07/23 07:03:20;;;;;;;4.43;1.50;;;26.00;96.00;;;;;;4115568;28;19922;-57
2022/07/23 07:05:25;;;;;;;8.20;2.22;;;26.10;95.70;;;;;;4115465;28;20429;-56
2022/07/23 07:07:27;;;;;;;3.97;1.27;;;26.20;95.50;;;;;;4127752;28;20349;-59
2022/07/23 07:09:29;;;;;;;1.30;1.30;;;26.50;95.20;;;;;;4127061;28;20030;-57
2022/07/23 07:11:31;;;;;;;;;;;26.90;94.50;;;;;;4126525;28;20129;-58
2022/07/23 07:13:33;;;;;;;8.35;1.90;;;27.00;94.50;;;;;;4119290;28;19973;-57
2022/07/23 07:15:35;;;;;;;1.30;1.20;;;27.10;93.40;;;;;;4120075;28;20170;-58
2022/07/23 07:17:37;;;;;;;1.45;0.90;;;27.40;92.60;;;;;;4117942;28;20576;-58
2022/07/23 07:19:39;;;;;;;1.63;1.52;;;27.40;91.90;;;;;;4142514;28;20042;-57
2022/07/23 07:21:42;;;;;;;0.93;0.93;;;27.20;90.90;;;;;;4122404;28;20073;-57
2022/07/23 07:23:45;;;;;;;2.92;0.90;;;27.20;90.70;;;;;;4112018;28;20078;-57
2022/07/23 07:25:47;;;;;;;4.10;1.33;;;27.40;90.00;;;;;;4125370;28;20050;-57
2022/07/23 07:27:49;;;;;;;;;;;27.80;88.40;;;;;;4123881;28;20801;-57
2022/07/23 07:29:51;;;;;;;2.88;0.90;;;28.00;89.40;;;;;;4116593;28;20012;-57
2022/07/23 07:31:54;;;;;;;2.10;0.90;;;28.20;89.60;;;;;;4127660;28;20469;-57
2022/07/23 07:33:56;;;;;;;2.28;1.00;;;28.60;89.70;;;;;;4125368;28;20066;-58
2022/07/23 07:36:00;;;;;;;3.05;0.90;;;28.50;86.30;;;;;;4112022;28;20443;-57
2022/07/23 07:38:03;;;;;;;4.43;0.90;;;28.60;86.80;;;;;;4120815;28;20542;-58
2022/07/23 07:40:06;;;;;;;2.35;1.10;;;29.10;84.70;;;;;;4125683;28;20058;-59
2022/07/23 07:42:08;;;;;;;1.73;1.00;;;29.40;87.20;;;;;;4126182;28;20080;-58
2022/07/23 07:44:10;;;;;;;;;;;29.80;85.60;;;;;;4119852;28;20453;-57
2022/07/23 07:46:12;;;;;;;2.60;0.90;;;30.10;84.40;;;;;;4127872;28;19973;-58
2022/07/23 07:48:14;;;;;;;2.85;1.27;;;30.40;84.70;;;;;;4112918;28;20101;-57
2022/07/23 07:50:16;;;;;;;1.00;1.00;;;30.60;83.30;;;;;;4120402;28;20073;-58
2022/07/23 07:52:18;;;;;;;1.10;1.00;;;30.50;82.30;;;;;;4120298;28;20047;-58
2022/07/23 07:54:20;;;;;;;;;;;30.20;82.10;;;;;;4114319;28;20067;-58
2022/07/23 07:56:22;;;;;;;6.38;1.88;;;30.10;79.70;;;;;;4114887;28;19945;-58
2022/07/23 07:58:24;;;;;;;0.93;0.90;;;30.00;81.40;;;;;;4127412;28;20038;-57
2022/07/23 08:00:27;;;;;;;1.05;1.00;;;30.30;82.30;;;;;;4119090;28;20065;-57
2022/07/23 08:02:29;;;;;;;5.70;1.35;;;30.90;81.10;;;;;;4115506;28;20043;-57
2022/07/23 08:04:31;;;;;;;2.25;0.95;;;31.00;80.00;;;;;;4128232;28;20038;-58
2022/07/23 08:06:33;;;;;;;2.78;1.15;;;31.30;80.30;;;;;;4120433;28;20043;-58
2022/07/23 08:08:35;;;;;;;2.67;0.90;;;31.40;77.20;;;;;;4127768;28;20050;-58
2022/07/23 08:10:37;;;;;;;1.42;1.00;;;31.50;77.00;;;;;;4130461;28;20109;-57
2022/07/23 08:12:41;;;;;;;0.98;0.98;;;31.50;78.80;;;;;;4130095;28;20053;-57
2022/07/23 08:14:44;;;;;;;0.95;0.82;;;31.90;79.20;;;;;;4129989;28;20052;-57
2022/07/23 08:16:46;;;;;;;1.55;1.00;;;32.30;80.20;;;;;;4117313;28;20105;-57
2022/07/23 08:19:08;;;;;;;3.63;0.70;;;32.40;77.50;;;;;;4123748;28;20045;-59
2022/07/23 08:21:11;;;;;;;3.95;0.90;;;32.20;77.70;;;;;;4121264;28;20041;-58
2022/07/23 08:23:13;;;;;;;1.52;0.90;;;32.40;77.20;;;;;;4129969;28;20398;-57
2022/07/23 08:25:20;;;;;;;4.85;0.90;;;32.20;74.30;;;;;;4126030;28;20295;-57
2022/07/23 08:27:22;;;;;;;3.95;0.85;;;32.20;77.40;;;;;;4122104;28;20047;-58
2022/07/23 08:29:24;;;;;;;5.00;1.38;;;32.50;75.60;;;;;;4124643;28;20499;-57
2022/07/23 08:31:28;;;;;;;3.10;1.00;;;32.60;74.70;;;;;;4116495;28;20528;-59
2022/07/23 08:33:31;;;;;;;2.47;0.90;;;32.60;75.50;;;;;;4130007;28;20097;-57
2022/07/23 08:35:40;;;;;;;2.20;1.00;;;32.70;74.50;;;;;;4129869;28;20046;-57
2022/07/23 08:37:42;;;;;;;1.60;0.93;;;32.80;74.20;;;;;;4128438;28;20064;-58
2022/07/23 08:39:44;;;;;;;2.03;0.80;;;33.00;74.30;;;;;;4113672;28;20042;-57
2022/07/23 08:41:47;;;;;;;2.50;0.82;;;32.40;74.50;;;;;;4122794;28;20133;-57
2022/07/23 08:43:50;;;;;;;1.73;0.90;;;32.30;74.80;;;;;;4129944;28;20659;-58
2022/07/23 08:45:58;;;;;;;2.15;0.90;;;32.60;77.70;;;;;;4114053;28;20568;-58
2022/07/23 08:48:03;;;;;;;6.25;1.38;;;32.80;75.00;;;;;;4121819;28;20039;-58
2022/07/23 08:50:07;;;;;;;1.02;1.00;;;32.90;76.30;;;;;;4128718;28;20125;-58
2022/07/23 08:52:10;;;;;;;3.45;0.93;;;33.20;76.80;;;;;;4129652;28;20042;-58
2022/07/23 08:54:12;;;;;;;3.13;0.85;;;33.50;74.20;;;;;;4123096;28;20043;-58
2022/07/23 08:56:14;;;;;;;1.73;0.80;;;33.20;73.80;;;;;;4114523;28;20049;-58
2022/07/23 08:58:16;;;;;;;1.50;1.10;;;33.20;77.00;;;;;;4126935;28;20471;-59
2022/07/23 09:00:20;;;;;;;3.70;0.90;;;33.10;78.80;;;;;;4124692;28;20065;-57
2022/07/23 09:02:23;;;;;;;0.80;0.80;;;33.30;79.40;;;;;;4128327;28;20055;-58
2022/07/23 09:04:26;;;;;;;2.63;0.90;;;33.60;77.50;;;;;;4128191;28;20674;-58
2022/07/23 09:06:28;;;;;;;4.68;0.90;;;33.70;78.40;;;;;;4126895;28;20144;-59
2022/07/23 09:08:38;;;;;;;2.95;1.20;;;33.90;76.60;;;;;;4129155;28;20177;-59
2022/07/23 09:10:53;;;;;;;2.95;0.85;;;34.00;77.10;;;;;;4117000;28;20043;-57
2022/07/23 09:12:55;;;;;;;3.10;1.20;;;33.90;72.10;;;;;;4122451;28;20058;-59
2022/07/23 09:15:07;;;;;;;0.80;0.80;;;33.60;74.40;;;;;;4128782;28;20042;-58
2022/07/23 09:17:14;;;;;;;5.47;0.80;;;33.80;74.90;;;;;;4123620;28;20402;-58
2022/07/23 09:19:16;;;;;;;1.05;0.93;;;33.90;77.70;;;;;;4123306;28;20075;-58
2022/07/23 09:21:39;;;;;;;2.30;0.80;;;34.40;78.60;;;;;;4122670;28;20046;-59
2022/07/23 09:23:44;;;;;;;5.60;1.10;;;34.30;76.80;;;;;;4120675;28;20034;-58
2022/07/23 09:25:47;;;;;;;1.85;0.90;;;33.90;73.30;;;;;;4123799;28;20501;-59
2022/07/23 09:27:59;;;;;;;5.28;1.83;;;33.80;75.10;;;;;;4128581;28;20132;-58
2022/07/23 09:30:05;;;;;;;2.95;0.93;;;34.10;74.60;;;;;;4113398;28;20055;-58
2022/07/23 09:32:13;;;;;;;3.15;0.80;;;34.40;74.90;;;;;;4121426;28;20077;-58
2022/07/23 09:34:28;;;;;;;2.80;1.20;;;34.40;75.80;;;;;;4120066;28;20418;-58
2022/07/23 09:36:31;;;;;;;1.13;0.80;;;33.90;73.40;;;;;;4115509;28;20423;-59
2022/07/23 09:38:33;;;;;;;3.55;0.88;;;33.70;74.40;;;;;;4125344;28;20498;-58
2022/07/23 09:40:41;;;;;;;1.27;1.00;;;33.90;73.10;;;;;;4126305;28;20043;-58
2022/07/23 09:42:55;;;;;;;1.48;0.90;;;33.60;74.80;;;;;;4117746;28;20097;-58
2022/07/23 09:44:58;;;;;;;3.20;1.00;;;33.50;74.00;;;;;;4122070;28;20055;-58
2022/07/23 09:47:01;;;;;;;1.48;0.73;;;33.40;73.80;;;;;;4117375;28;20074;-58
2022/07/23 09:49:12;;;;;;;2.05;0.80;;;33.20;76.00;;;;;;4120509;28;21740;-58
2022/07/23 09:51:18;;;;;;;4.82;1.02;;;33.40;73.30;;;;;;4127215;28;20035;-58
2022/07/23 09:53:26;;;;;;;0.95;0.95;;;33.60;76.20;;;;;;4123432;28;20466;-59
2022/07/23 09:55:39;;;;;;;0.80;0.80;;;34.00;73.40;;;;;;4123562;28;20064;-59
2022/07/23 09:57:44;;;;;;;1.08;0.90;;;34.50;73.10;;;;;;4117956;28;20479;-58
2022/07/23 09:59:47;;;;;;;1.40;0.88;;;34.80;72.10;;;;;;4112723;28;20425;-58
2022/07/23 10:01:51;;;;;;;2.42;0.88;;;34.60;69.80;;;;;;4119033;28;20153;-58
2022/07/23 10:03:53;;;;;;;0.80;0.80;;;34.20;71.20;;;;;;4124064;28;20117;-59
2022/07/23 10:05:56;;;;;;;0.80;0.80;;;34.20;68.40;;;;;;4112591;28;20181;-58
2022/07/23 10:08:00;;;;;;;1.05;0.70;;;34.70;72.80;;;;;;4119326;28;20505;-58
2022/07/23 10:10:04;;;;;;;4.53;0.80;;;34.90;70.60;;;;;;4128044;28;20087;-58
2022/07/23 10:14:22;;;;;;;1.30;0.70;;;34.70;72.40;;;;;;4114927;28;20038;-65
2022/07/23 10:16:24;;;;;;;2.28;0.80;;;35.20;70.70;;;;;;4117269;28;20490;-64
2022/07/23 10:18:30;;;;;;;0.95;0.80;;;35.20;69.50;;;;;;4125356;28;20074;-65
2022/07/23 10:20:32;;;;;;;0.82;0.70;;;35.30;71.30;;;;;;4120933;28;20049;-64
2022/07/23 10:22:38;;;;;;;0.95;0.85;;;35.30;67.70;;;;;;4125150;28;20550;-64
2022/07/23 10:25:03;;;;;;;5.72;0.73;;;35.30;69.10;;;;;;4117752;28;20131;-65
2022/07/23 10:27:38;;;;;;;3.50;0.80;;;35.50;67.10;;;;;;4114721;28;20081;-64
2022/07/23 10:30:00;;;;;;;1.60;0.60;;;35.00;66.60;;;;;;4118240;28;20089;-65
2022/07/23 10:32:21;;;;;;;0.95;0.70;;;34.70;66.50;;;;;;4124438;28;20133;-65
2022/07/23 10:34:42;;;;;;;1.17;0.70;;;34.60;68.70;;;;;;4120835;28;20090;-65
2022/07/23 10:36:55;;;;;;;1.45;0.65;;;35.10;66.10;;;;;;4119788;28;20487;-65
2022/07/23 10:39:05;;;;;;;1.77;0.70;;;35.30;65.30;;;;;;4114819;28;20047;-64
2022/07/23 10:41:07;;;;;;;2.92;0.75;;;35.40;65.00;;;;;;4121725;28;20046;-65
2022/07/23 10:43:16;;;;;;;1.08;0.70;;;35.50;68.10;;;;;;4115171;28;20039;-65
2022/07/23 10:45:39;;;;;;;1.10;0.93;;;36.00;68.90;;;;;;4119516;28;20050;-65
2022/07/23 10:47:42;;;;;;;2.08;0.70;;;35.50;67.30;;;;;;4120981;28;20362;-66
2022/07/23 10:49:48;;;;;;;0.68;0.68;;;35.70;66.00;;;;;;4120550;28;20541;-65